<?xml version="1.0" encoding="UTF-8" standalone="no" ?>
<gpx xmlns="http://www.topografix.com/GPX/1/1" xmlns:xsi="http://www.w3.org/2001/XMLSchema-instance" xsi:schemaLocation="http://www.topografix.com/GPX/1/1 http://www.topografix.com/GPX/1/1/gpx.xsd" version="1.1" creator="VisuGPX - https://www.visugpx.com">
  <metadata>
    <name>GR654 De Périgueux à Bergerac (Dordogne) (2019)</name>
    <desc><![CDATA[Randonnée sur le GR654, chemin de Saint-Jacques de Compostelle, à travers la Dordogne de Périgueux à Bergerac. Gîtes d'étapes, Chambres d'hôtes, Hôtels, Camping, Refuges, Auberges.]]></desc>
  </metadata>
  <trk>
    <name><![CDATA[GR654 De Périgueux à Bergerac (Dordogne) (2019)]]></name>
    <cmt><![CDATA[Randonnée sur le GR654, chemin de Saint-Jacques de Compostelle, à travers la Dordogne de Périgueux à Bergerac. Gîtes d'étapes, Chambres d'hôtes, Hôtels, Camping, Refuges, Auberges.]]></cmt>
    <desc><![CDATA[Randonnée sur le GR654, chemin de Saint-Jacques de Compostelle, à travers la Dordogne de Périgueux à Bergerac. Gîtes d'étapes, Chambres d'hôtes, Hôtels, Camping, Refuges, Auberges.]]></desc>
    <trkseg>
      <trkpt lat="45.18316" lon="0.72399">
        <ele>92.274</ele>
        <time>2019-04-08T12:53:43Z</time>
      </trkpt>
      <trkpt lat="45.1822" lon="0.7238">
        <ele>90.156</ele>
        <time>2019-04-08T12:54:03Z</time>
      </trkpt>
      <trkpt lat="45.18067" lon="0.7231">
        <ele>87.921</ele>
        <time>2019-04-08T12:54:23Z</time>
      </trkpt>
      <trkpt lat="45.17992" lon="0.7225">
        <ele>89.108</ele>
        <time>2019-04-08T12:54:43Z</time>
      </trkpt>
      <trkpt lat="45.17861" lon="0.72195">
        <ele>87.22</ele>
        <time>2019-04-08T12:55:03Z</time>
      </trkpt>
      <trkpt lat="45.1785" lon="0.72291">
        <ele>87.742</ele>
        <time>2019-04-08T12:55:23Z</time>
      </trkpt>
      <trkpt lat="45.17824" lon="0.72274">
        <ele>86.927</ele>
        <time>2019-04-08T12:55:43Z</time>
      </trkpt>
      <trkpt lat="45.17752" lon="0.7227">
        <ele>87.268</ele>
        <time>2019-04-08T12:56:03Z</time>
      </trkpt>
      <trkpt lat="45.17734" lon="0.72326">
        <ele>88.052</ele>
        <time>2019-04-08T12:56:23Z</time>
      </trkpt>
      <trkpt lat="45.17705" lon="0.72344">
        <ele>88.724</ele>
        <time>2019-04-08T12:56:43Z</time>
      </trkpt>
      <trkpt lat="45.17698" lon="0.7238">
        <ele>88.812</ele>
        <time>2019-04-08T12:57:03Z</time>
      </trkpt>
      <trkpt lat="45.17707" lon="0.72428">
        <ele>89.098</ele>
        <time>2019-04-08T12:57:23Z</time>
      </trkpt>
      <trkpt lat="45.17688" lon="0.72466">
        <ele>89.312</ele>
        <time>2019-04-08T12:57:43Z</time>
      </trkpt>
      <trkpt lat="45.17602" lon="0.72386">
        <ele>90.632</ele>
        <time>2019-04-08T12:58:03Z</time>
      </trkpt>
      <trkpt lat="45.17435" lon="0.72088">
        <ele>98.605</ele>
        <time>2019-04-08T12:58:23Z</time>
      </trkpt>
      <trkpt lat="45.17435" lon="0.71962">
        <ele>95.508</ele>
        <time>2019-04-08T12:58:43Z</time>
      </trkpt>
      <trkpt lat="45.17421" lon="0.71872">
        <ele>101.434</ele>
        <time>2019-04-08T12:59:03Z</time>
      </trkpt>
      <trkpt lat="45.1742" lon="0.71631">
        <ele>103.486</ele>
        <time>2019-04-08T12:59:23Z</time>
      </trkpt>
      <trkpt lat="45.17438" lon="0.71403">
        <ele>92.311</ele>
        <time>2019-04-08T12:59:43Z</time>
      </trkpt>
      <trkpt lat="45.17426" lon="0.71375">
        <ele>91.562</ele>
        <time>2019-04-08T13:00:03Z</time>
      </trkpt>
      <trkpt lat="45.17102" lon="0.71317">
        <ele>110.116</ele>
        <time>2019-04-08T13:00:23Z</time>
      </trkpt>
      <trkpt lat="45.16975" lon="0.71267">
        <ele>112.638</ele>
        <time>2019-04-08T13:00:43Z</time>
      </trkpt>
      <trkpt lat="45.16922" lon="0.71207">
        <ele>118.326</ele>
        <time>2019-04-08T13:01:03Z</time>
      </trkpt>
      <trkpt lat="45.16879" lon="0.71111">
        <ele>125.372</ele>
        <time>2019-04-08T13:01:23Z</time>
      </trkpt>
      <trkpt lat="45.16806" lon="0.70862">
        <ele>123.327</ele>
        <time>2019-04-08T13:01:43Z</time>
      </trkpt>
      <trkpt lat="45.16778" lon="0.70816">
        <ele>124.668</ele>
        <time>2019-04-08T13:02:03Z</time>
      </trkpt>
      <trkpt lat="45.16738" lon="0.70802">
        <ele>120.014</ele>
        <time>2019-04-08T13:02:23Z</time>
      </trkpt>
      <trkpt lat="45.16673" lon="0.706">
        <ele>135.508</ele>
        <time>2019-04-08T13:02:43Z</time>
      </trkpt>
      <trkpt lat="45.1658" lon="0.70596">
        <ele>164.145</ele>
        <time>2019-04-08T13:03:03Z</time>
      </trkpt>
      <trkpt lat="45.16514" lon="0.70568">
        <ele>170.127</ele>
        <time>2019-04-08T13:03:23Z</time>
      </trkpt>
      <trkpt lat="45.16464" lon="0.70536">
        <ele>173.652</ele>
        <time>2019-04-08T13:03:43Z</time>
      </trkpt>
      <trkpt lat="45.1645" lon="0.70508">
        <ele>175.063</ele>
        <time>2019-04-08T13:04:03Z</time>
      </trkpt>
      <trkpt lat="45.16377" lon="0.70444">
        <ele>180.687</ele>
        <time>2019-04-08T13:04:23Z</time>
      </trkpt>
      <trkpt lat="45.16373" lon="0.7039">
        <ele>181.959</ele>
        <time>2019-04-08T13:04:43Z</time>
      </trkpt>
      <trkpt lat="45.16353" lon="0.70328">
        <ele>179.747</ele>
        <time>2019-04-08T13:05:03Z</time>
      </trkpt>
      <trkpt lat="45.16212" lon="0.70162">
        <ele>175.043</ele>
        <time>2019-04-08T13:05:23Z</time>
      </trkpt>
      <trkpt lat="45.15976" lon="0.7002">
        <ele>186.237</ele>
        <time>2019-04-08T13:05:43Z</time>
      </trkpt>
      <trkpt lat="45.15982" lon="0.6995">
        <ele>189.149</ele>
        <time>2019-04-08T13:06:03Z</time>
      </trkpt>
      <trkpt lat="45.16028" lon="0.69942">
        <ele>184.313</ele>
        <time>2019-04-08T13:06:23Z</time>
      </trkpt>
      <trkpt lat="45.16045" lon="0.6991">
        <ele>184.308</ele>
        <time>2019-04-08T13:06:43Z</time>
      </trkpt>
      <trkpt lat="45.16041" lon="0.69869">
        <ele>184.826</ele>
        <time>2019-04-08T13:07:03Z</time>
      </trkpt>
      <trkpt lat="45.16056" lon="0.69829">
        <ele>183.798</ele>
        <time>2019-04-08T13:07:23Z</time>
      </trkpt>
      <trkpt lat="45.15956" lon="0.69591">
        <ele>180.063</ele>
        <time>2019-04-08T13:07:43Z</time>
      </trkpt>
      <trkpt lat="45.15887" lon="0.69543">
        <ele>183.464</ele>
        <time>2019-04-08T13:08:03Z</time>
      </trkpt>
      <trkpt lat="45.15781" lon="0.69511">
        <ele>188.478</ele>
        <time>2019-04-08T13:08:23Z</time>
      </trkpt>
      <trkpt lat="45.15619" lon="0.69393">
        <ele>202.96</ele>
        <time>2019-04-08T13:08:43Z</time>
      </trkpt>
      <trkpt lat="45.15627" lon="0.69303">
        <ele>201.968</ele>
        <time>2019-04-08T13:09:03Z</time>
      </trkpt>
      <trkpt lat="45.15701" lon="0.69151">
        <ele>207.684</ele>
        <time>2019-04-08T13:09:23Z</time>
      </trkpt>
      <trkpt lat="45.15747" lon="0.68995">
        <ele>213.148</ele>
        <time>2019-04-08T13:09:43Z</time>
      </trkpt>
      <trkpt lat="45.15715" lon="0.68918">
        <ele>213.261</ele>
        <time>2019-04-08T13:10:03Z</time>
      </trkpt>
      <trkpt lat="45.15626" lon="0.68936">
        <ele>209.417</ele>
        <time>2019-04-08T13:10:23Z</time>
      </trkpt>
      <trkpt lat="45.15564" lon="0.68898">
        <ele>197.608</ele>
        <time>2019-04-08T13:10:43Z</time>
      </trkpt>
      <trkpt lat="45.15432" lon="0.6888">
        <ele>195.217</ele>
        <time>2019-04-08T13:11:03Z</time>
      </trkpt>
      <trkpt lat="45.15116" lon="0.68906">
        <ele>173.229</ele>
        <time>2019-04-08T13:11:23Z</time>
      </trkpt>
      <trkpt lat="45.14897" lon="0.69035">
        <ele>159.184</ele>
        <time>2019-04-08T13:11:43Z</time>
      </trkpt>
      <trkpt lat="45.14859" lon="0.69033">
        <ele>157.825</ele>
        <time>2019-04-08T13:12:03Z</time>
      </trkpt>
      <trkpt lat="45.14767" lon="0.69087">
        <ele>149.939</ele>
        <time>2019-04-08T13:12:23Z</time>
      </trkpt>
      <trkpt lat="45.14527" lon="0.69141">
        <ele>128.841</ele>
        <time>2019-04-08T13:12:43Z</time>
      </trkpt>
      <trkpt lat="45.1442" lon="0.69099">
        <ele>121.669</ele>
        <time>2019-04-08T13:13:03Z</time>
      </trkpt>
      <trkpt lat="45.14414" lon="0.69157">
        <ele>121.535</ele>
        <time>2019-04-08T13:13:23Z</time>
      </trkpt>
      <trkpt lat="45.14392" lon="0.69169">
        <ele>121.263</ele>
        <time>2019-04-08T13:13:43Z</time>
      </trkpt>
      <trkpt lat="45.14385" lon="0.69113">
        <ele>120.544</ele>
        <time>2019-04-08T13:14:03Z</time>
      </trkpt>
      <trkpt lat="45.14297" lon="0.69035">
        <ele>122.318</ele>
        <time>2019-04-08T13:14:23Z</time>
      </trkpt>
      <trkpt lat="45.14289" lon="0.68916">
        <ele>121.508</ele>
        <time>2019-04-08T13:14:43Z</time>
      </trkpt>
      <trkpt lat="45.14242" lon="0.6866">
        <ele>120.949</ele>
        <time>2019-04-08T13:15:03Z</time>
      </trkpt>
      <trkpt lat="45.14242" lon="0.68488">
        <ele>120.051</ele>
        <time>2019-04-08T13:15:23Z</time>
      </trkpt>
      <trkpt lat="45.14211" lon="0.68436">
        <ele>122.496</ele>
        <time>2019-04-08T13:15:43Z</time>
      </trkpt>
      <trkpt lat="45.1417" lon="0.68192">
        <ele>122.187</ele>
        <time>2019-04-08T13:16:03Z</time>
      </trkpt>
      <trkpt lat="45.14136" lon="0.68131">
        <ele>127.911</ele>
        <time>2019-04-08T13:16:23Z</time>
      </trkpt>
      <trkpt lat="45.14126" lon="0.68079">
        <ele>130.833</ele>
        <time>2019-04-08T13:16:43Z</time>
      </trkpt>
      <trkpt lat="45.14138" lon="0.67991">
        <ele>127.851</ele>
        <time>2019-04-08T13:17:03Z</time>
      </trkpt>
      <trkpt lat="45.14102" lon="0.67924">
        <ele>127.977</ele>
        <time>2019-04-08T13:17:23Z</time>
      </trkpt>
      <trkpt lat="45.13927" lon="0.67865">
        <ele>126.769</ele>
        <time>2019-04-08T13:17:43Z</time>
      </trkpt>
      <trkpt lat="45.13714" lon="0.67811">
        <ele>123.204</ele>
        <time>2019-04-08T13:18:03Z</time>
      </trkpt>
      <trkpt lat="45.13567" lon="0.67795">
        <ele>123.024</ele>
        <time>2019-04-08T13:18:23Z</time>
      </trkpt>
      <trkpt lat="45.13489" lon="0.67923">
        <ele>127.108</ele>
        <time>2019-04-08T13:18:43Z</time>
      </trkpt>
      <trkpt lat="45.13426" lon="0.68016">
        <ele>134.389</ele>
        <time>2019-04-08T13:19:03Z</time>
      </trkpt>
      <trkpt lat="45.13399" lon="0.6825">
        <ele>147.621</ele>
        <time>2019-04-08T13:19:23Z</time>
      </trkpt>
      <trkpt lat="45.13296" lon="0.68484">
        <ele>172.766</ele>
        <time>2019-04-08T13:19:43Z</time>
      </trkpt>
      <trkpt lat="45.13326" lon="0.68558">
        <ele>184.027</ele>
        <time>2019-04-08T13:20:03Z</time>
      </trkpt>
      <trkpt lat="45.1332" lon="0.68668">
        <ele>202.741</ele>
        <time>2019-04-08T13:20:23Z</time>
      </trkpt>
      <trkpt lat="45.1328" lon="0.68816">
        <ele>214.823</ele>
        <time>2019-04-08T13:20:43Z</time>
      </trkpt>
      <trkpt lat="45.13338" lon="0.68943">
        <ele>215.851</ele>
        <time>2019-04-08T13:21:03Z</time>
      </trkpt>
      <trkpt lat="45.13282" lon="0.68975">
        <ele>216.297</ele>
        <time>2019-04-08T13:21:23Z</time>
      </trkpt>
      <trkpt lat="45.13189" lon="0.69097">
        <ele>214.238</ele>
        <time>2019-04-08T13:21:43Z</time>
      </trkpt>
      <trkpt lat="45.13108" lon="0.69169">
        <ele>205.77</ele>
        <time>2019-04-08T13:22:03Z</time>
      </trkpt>
      <trkpt lat="45.13102" lon="0.69211">
        <ele>204.717</ele>
        <time>2019-04-08T13:22:23Z</time>
      </trkpt>
      <trkpt lat="45.13085" lon="0.69233">
        <ele>202.708</ele>
        <time>2019-04-08T13:22:43Z</time>
      </trkpt>
      <trkpt lat="45.13052" lon="0.69175">
        <ele>198.276</ele>
        <time>2019-04-08T13:23:03Z</time>
      </trkpt>
      <trkpt lat="45.12985" lon="0.69163">
        <ele>186.468</ele>
        <time>2019-04-08T13:23:23Z</time>
      </trkpt>
      <trkpt lat="45.12977" lon="0.69127">
        <ele>183.023</ele>
        <time>2019-04-08T13:23:43Z</time>
      </trkpt>
      <trkpt lat="45.13011" lon="0.69105">
        <ele>187.554</ele>
        <time>2019-04-08T13:24:03Z</time>
      </trkpt>
      <trkpt lat="45.12987" lon="0.68991">
        <ele>167.768</ele>
        <time>2019-04-08T13:24:23Z</time>
      </trkpt>
      <trkpt lat="45.12984" lon="0.68904">
        <ele>158.74</ele>
        <time>2019-04-08T13:24:43Z</time>
      </trkpt>
      <trkpt lat="45.12967" lon="0.68826">
        <ele>151.428</ele>
        <time>2019-04-08T13:25:03Z</time>
      </trkpt>
      <trkpt lat="45.1292" lon="0.68744">
        <ele>141.064</ele>
        <time>2019-04-08T13:25:23Z</time>
      </trkpt>
      <trkpt lat="45.12896" lon="0.6876">
        <ele>139.678</ele>
        <time>2019-04-08T13:25:43Z</time>
      </trkpt>
      <trkpt lat="45.12858" lon="0.68658">
        <ele>135.133</ele>
        <time>2019-04-08T13:26:03Z</time>
      </trkpt>
      <trkpt lat="45.12785" lon="0.68544">
        <ele>139.826</ele>
        <time>2019-04-08T13:26:23Z</time>
      </trkpt>
      <trkpt lat="45.12568" lon="0.6836">
        <ele>162.308</ele>
        <time>2019-04-08T13:26:43Z</time>
      </trkpt>
      <trkpt lat="45.12446" lon="0.6825">
        <ele>166.39</ele>
        <time>2019-04-08T13:27:03Z</time>
      </trkpt>
      <trkpt lat="45.12296" lon="0.6815">
        <ele>180.812</ele>
        <time>2019-04-08T13:27:23Z</time>
      </trkpt>
      <trkpt lat="45.12317" lon="0.68082">
        <ele>182.817</ele>
        <time>2019-04-08T13:27:43Z</time>
      </trkpt>
      <trkpt lat="45.122" lon="0.67976">
        <ele>193.058</ele>
        <time>2019-04-08T13:28:03Z</time>
      </trkpt>
      <trkpt lat="45.12133" lon="0.67931">
        <ele>197.822</ele>
        <time>2019-04-08T13:28:23Z</time>
      </trkpt>
      <trkpt lat="45.11962" lon="0.67935">
        <ele>199.034</ele>
        <time>2019-04-08T13:28:43Z</time>
      </trkpt>
      <trkpt lat="45.11912" lon="0.68006">
        <ele>198.822</ele>
        <time>2019-04-08T13:29:03Z</time>
      </trkpt>
      <trkpt lat="45.11873" lon="0.68074">
        <ele>198.418</ele>
        <time>2019-04-08T13:29:23Z</time>
      </trkpt>
      <trkpt lat="45.11758" lon="0.6814">
        <ele>199.184</ele>
        <time>2019-04-08T13:29:43Z</time>
      </trkpt>
      <trkpt lat="45.11697" lon="0.68148">
        <ele>199.607</ele>
        <time>2019-04-08T13:30:03Z</time>
      </trkpt>
      <trkpt lat="45.11647" lon="0.6818">
        <ele>197.717</ele>
        <time>2019-04-08T13:30:23Z</time>
      </trkpt>
      <trkpt lat="45.11639" lon="0.68122">
        <ele>198.808</ele>
        <time>2019-04-08T13:30:43Z</time>
      </trkpt>
      <trkpt lat="45.11588" lon="0.68004">
        <ele>199.021</ele>
        <time>2019-04-08T13:31:03Z</time>
      </trkpt>
      <trkpt lat="45.11512" lon="0.67937">
        <ele>197.143</ele>
        <time>2019-04-08T13:31:23Z</time>
      </trkpt>
      <trkpt lat="45.11444" lon="0.67917">
        <ele>196.638</ele>
        <time>2019-04-08T13:31:43Z</time>
      </trkpt>
      <trkpt lat="45.1139" lon="0.67909">
        <ele>198.259</ele>
        <time>2019-04-08T13:32:03Z</time>
      </trkpt>
      <trkpt lat="45.11328" lon="0.67849">
        <ele>201.873</ele>
        <time>2019-04-08T13:32:23Z</time>
      </trkpt>
      <trkpt lat="45.11242" lon="0.67801">
        <ele>208.465</ele>
        <time>2019-04-08T13:32:43Z</time>
      </trkpt>
      <trkpt lat="45.11159" lon="0.67807">
        <ele>208.643</ele>
        <time>2019-04-08T13:33:03Z</time>
      </trkpt>
      <trkpt lat="45.11118" lon="0.67849">
        <ele>208.849</ele>
        <time>2019-04-08T13:33:23Z</time>
      </trkpt>
      <trkpt lat="45.11036" lon="0.67845">
        <ele>210.279</ele>
        <time>2019-04-08T13:33:43Z</time>
      </trkpt>
      <trkpt lat="45.11007" lon="0.67779">
        <ele>212.005</ele>
        <time>2019-04-08T13:34:03Z</time>
      </trkpt>
      <trkpt lat="45.10942" lon="0.67763">
        <ele>213.025</ele>
        <time>2019-04-08T13:34:23Z</time>
      </trkpt>
      <trkpt lat="45.10867" lon="0.67827">
        <ele>214.308</ele>
        <time>2019-04-08T13:34:43Z</time>
      </trkpt>
      <trkpt lat="45.10829" lon="0.67821">
        <ele>217.07</ele>
        <time>2019-04-08T13:35:03Z</time>
      </trkpt>
      <trkpt lat="45.10788" lon="0.68056">
        <ele>215.162</ele>
        <time>2019-04-08T13:35:23Z</time>
      </trkpt>
      <trkpt lat="45.10648" lon="0.68216">
        <ele>208.027</ele>
        <time>2019-04-08T13:35:43Z</time>
      </trkpt>
      <trkpt lat="45.10586" lon="0.68166">
        <ele>201.718</ele>
        <time>2019-04-08T13:36:03Z</time>
      </trkpt>
      <trkpt lat="45.10574" lon="0.68058">
        <ele>192.672</ele>
        <time>2019-04-08T13:36:23Z</time>
      </trkpt>
      <trkpt lat="45.10517" lon="0.67929">
        <ele>183.444</ele>
        <time>2019-04-08T13:36:43Z</time>
      </trkpt>
      <trkpt lat="45.10521" lon="0.67994">
        <ele>184.392</ele>
        <time>2019-04-08T13:37:03Z</time>
      </trkpt>
      <trkpt lat="45.10422" lon="0.68097">
        <ele>182.098</ele>
        <time>2019-04-08T13:37:23Z</time>
      </trkpt>
      <trkpt lat="45.10349" lon="0.68131">
        <ele>190.052</ele>
        <time>2019-04-08T13:37:43Z</time>
      </trkpt>
      <trkpt lat="45.10267" lon="0.68194">
        <ele>196.053</ele>
        <time>2019-04-08T13:38:03Z</time>
      </trkpt>
      <trkpt lat="45.10193" lon="0.68224">
        <ele>201.708</ele>
        <time>2019-04-08T13:38:23Z</time>
      </trkpt>
      <trkpt lat="45.10152" lon="0.68284">
        <ele>206.908</ele>
        <time>2019-04-08T13:38:43Z</time>
      </trkpt>
      <trkpt lat="45.10075" lon="0.6832">
        <ele>211.798</ele>
        <time>2019-04-08T13:39:03Z</time>
      </trkpt>
      <trkpt lat="45.09987" lon="0.68316">
        <ele>214.13</ele>
        <time>2019-04-08T13:39:23Z</time>
      </trkpt>
      <trkpt lat="45.09955" lon="0.6827">
        <ele>214.185</ele>
        <time>2019-04-08T13:39:43Z</time>
      </trkpt>
      <trkpt lat="45.09894" lon="0.68294">
        <ele>216.256</ele>
        <time>2019-04-08T13:40:03Z</time>
      </trkpt>
      <trkpt lat="45.09816" lon="0.68346">
        <ele>219.96</ele>
        <time>2019-04-08T13:40:23Z</time>
      </trkpt>
      <trkpt lat="45.09806" lon="0.68314">
        <ele>219.542</ele>
        <time>2019-04-08T13:40:43Z</time>
      </trkpt>
      <trkpt lat="45.09713" lon="0.6824">
        <ele>218.36</ele>
        <time>2019-04-08T13:41:03Z</time>
      </trkpt>
      <trkpt lat="45.0958" lon="0.68012">
        <ele>223.516</ele>
        <time>2019-04-08T13:41:23Z</time>
      </trkpt>
      <trkpt lat="45.09453" lon="0.67971">
        <ele>222.464</ele>
        <time>2019-04-08T13:41:43Z</time>
      </trkpt>
      <trkpt lat="45.09379" lon="0.67915">
        <ele>220.506</ele>
        <time>2019-04-08T13:42:03Z</time>
      </trkpt>
      <trkpt lat="45.09225" lon="0.67741">
        <ele>214.716</ele>
        <time>2019-04-08T13:42:23Z</time>
      </trkpt>
      <trkpt lat="45.09162" lon="0.67683">
        <ele>207.708</ele>
        <time>2019-04-08T13:42:43Z</time>
      </trkpt>
      <trkpt lat="45.09152" lon="0.67639">
        <ele>203.449</ele>
        <time>2019-04-08T13:43:03Z</time>
      </trkpt>
      <trkpt lat="45.0918" lon="0.67503">
        <ele>191.651</ele>
        <time>2019-04-08T13:43:23Z</time>
      </trkpt>
      <trkpt lat="45.09163" lon="0.67419">
        <ele>175.436</ele>
        <time>2019-04-08T13:43:43Z</time>
      </trkpt>
      <trkpt lat="45.09129" lon="0.67381">
        <ele>172.227</ele>
        <time>2019-04-08T13:44:03Z</time>
      </trkpt>
      <trkpt lat="45.09078" lon="0.67395">
        <ele>171.831</ele>
        <time>2019-04-08T13:44:23Z</time>
      </trkpt>
      <trkpt lat="45.09049" lon="0.67267">
        <ele>170.843</ele>
        <time>2019-04-08T13:44:43Z</time>
      </trkpt>
      <trkpt lat="45.08999" lon="0.67179">
        <ele>172.451</ele>
        <time>2019-04-08T13:45:03Z</time>
      </trkpt>
      <trkpt lat="45.08991" lon="0.67131">
        <ele>174.267</ele>
        <time>2019-04-08T13:45:23Z</time>
      </trkpt>
      <trkpt lat="45.09005" lon="0.6691">
        <ele>164.969</ele>
        <time>2019-04-08T13:45:43Z</time>
      </trkpt>
      <trkpt lat="45.08998" lon="0.66814">
        <ele>163.204</ele>
        <time>2019-04-08T13:46:03Z</time>
      </trkpt>
      <trkpt lat="45.08902" lon="0.66578">
        <ele>147.424</ele>
        <time>2019-04-08T13:46:23Z</time>
      </trkpt>
      <trkpt lat="45.08861" lon="0.66506">
        <ele>144.008</ele>
        <time>2019-04-08T13:46:43Z</time>
      </trkpt>
      <trkpt lat="45.08791" lon="0.66472">
        <ele>141.569</ele>
        <time>2019-04-08T13:47:03Z</time>
      </trkpt>
      <trkpt lat="45.08725" lon="0.66476">
        <ele>149.741</ele>
        <time>2019-04-08T13:47:23Z</time>
      </trkpt>
      <trkpt lat="45.08668" lon="0.66584">
        <ele>150.596</ele>
        <time>2019-04-08T13:47:43Z</time>
      </trkpt>
      <trkpt lat="45.08629" lon="0.66612">
        <ele>151.397</ele>
        <time>2019-04-08T13:48:03Z</time>
      </trkpt>
      <trkpt lat="45.0861" lon="0.66638">
        <ele>151.561</ele>
        <time>2019-04-08T13:48:23Z</time>
      </trkpt>
      <trkpt lat="45.08584" lon="0.66656">
        <ele>153.093</ele>
        <time>2019-04-08T13:48:43Z</time>
      </trkpt>
      <trkpt lat="45.08502" lon="0.66764">
        <ele>164.521</ele>
        <time>2019-04-08T13:49:03Z</time>
      </trkpt>
      <trkpt lat="45.08417" lon="0.66948">
        <ele>161.787</ele>
        <time>2019-04-08T13:49:23Z</time>
      </trkpt>
      <trkpt lat="45.08374" lon="0.66962">
        <ele>170.537</ele>
        <time>2019-04-08T13:49:43Z</time>
      </trkpt>
      <trkpt lat="45.08363" lon="0.66944">
        <ele>171.549</ele>
        <time>2019-04-08T13:50:03Z</time>
      </trkpt>
      <trkpt lat="45.08331" lon="0.66936">
        <ele>177.313</ele>
        <time>2019-04-08T13:50:23Z</time>
      </trkpt>
      <trkpt lat="45.08246" lon="0.66968">
        <ele>183.208</ele>
        <time>2019-04-08T13:50:43Z</time>
      </trkpt>
      <trkpt lat="45.08198" lon="0.66996">
        <ele>184.456</ele>
        <time>2019-04-08T13:51:03Z</time>
      </trkpt>
      <trkpt lat="45.08135" lon="0.66986">
        <ele>189.538</ele>
        <time>2019-04-08T13:51:23Z</time>
      </trkpt>
      <trkpt lat="45.08205" lon="0.67077">
        <ele>185.223</ele>
        <time>2019-04-08T13:51:43Z</time>
      </trkpt>
      <trkpt lat="45.08206" lon="0.67149">
        <ele>186.964</ele>
        <time>2019-04-08T13:52:03Z</time>
      </trkpt>
      <trkpt lat="45.08007" lon="0.67145">
        <ele>201.178</ele>
        <time>2019-04-08T13:52:23Z</time>
      </trkpt>
      <trkpt lat="45.07984" lon="0.67181">
        <ele>205.94</ele>
        <time>2019-04-08T13:52:43Z</time>
      </trkpt>
      <trkpt lat="45.07909" lon="0.67217">
        <ele>214.448</ele>
        <time>2019-04-08T13:53:03Z</time>
      </trkpt>
      <trkpt lat="45.07854" lon="0.67181">
        <ele>216.534</ele>
        <time>2019-04-08T13:53:23Z</time>
      </trkpt>
      <trkpt lat="45.0774" lon="0.67177">
        <ele>219.555</ele>
        <time>2019-04-08T13:53:43Z</time>
      </trkpt>
      <trkpt lat="45.07669" lon="0.67145">
        <ele>222.107</ele>
        <time>2019-04-08T13:54:03Z</time>
      </trkpt>
      <trkpt lat="45.07633" lon="0.67161">
        <ele>222.417</ele>
        <time>2019-04-08T13:54:23Z</time>
      </trkpt>
      <trkpt lat="45.07571" lon="0.67142">
        <ele>222.908</ele>
        <time>2019-04-08T13:54:43Z</time>
      </trkpt>
      <trkpt lat="45.07538" lon="0.6716">
        <ele>223.448</ele>
        <time>2019-04-08T13:55:03Z</time>
      </trkpt>
      <trkpt lat="45.07495" lon="0.67213">
        <ele>220.58</ele>
        <time>2019-04-08T13:55:23Z</time>
      </trkpt>
      <trkpt lat="45.0746" lon="0.67177">
        <ele>222.315</ele>
        <time>2019-04-08T13:55:43Z</time>
      </trkpt>
      <trkpt lat="45.07355" lon="0.67093">
        <ele>228.776</ele>
        <time>2019-04-08T13:56:03Z</time>
      </trkpt>
      <trkpt lat="45.07079" lon="0.66494">
        <ele>227.78</ele>
        <time>2019-04-08T13:56:23Z</time>
      </trkpt>
      <trkpt lat="45.06965" lon="0.66376">
        <ele>216.512</ele>
        <time>2019-04-08T13:56:43Z</time>
      </trkpt>
      <trkpt lat="45.06893" lon="0.66198">
        <ele>210.81</ele>
        <time>2019-04-08T13:57:03Z</time>
      </trkpt>
      <trkpt lat="45.06717" lon="0.66062">
        <ele>214.926</ele>
        <time>2019-04-08T13:57:23Z</time>
      </trkpt>
      <trkpt lat="45.06679" lon="0.66007">
        <ele>213.377</ele>
        <time>2019-04-08T13:57:43Z</time>
      </trkpt>
      <trkpt lat="45.06539" lon="0.65919">
        <ele>210.761</ele>
        <time>2019-04-08T13:58:03Z</time>
      </trkpt>
      <trkpt lat="45.06507" lon="0.65919">
        <ele>212.927</ele>
        <time>2019-04-08T13:58:23Z</time>
      </trkpt>
      <trkpt lat="45.06415" lon="0.65719">
        <ele>215.608</ele>
        <time>2019-04-08T13:58:43Z</time>
      </trkpt>
      <trkpt lat="45.0633" lon="0.65641">
        <ele>212.79</ele>
        <time>2019-04-08T13:59:03Z</time>
      </trkpt>
      <trkpt lat="45.06251" lon="0.65637">
        <ele>208.752</ele>
        <time>2019-04-08T13:59:23Z</time>
      </trkpt>
      <trkpt lat="45.06228" lon="0.65601">
        <ele>202.587</ele>
        <time>2019-04-08T13:59:43Z</time>
      </trkpt>
      <trkpt lat="45.06237" lon="0.65561">
        <ele>197.788</ele>
        <time>2019-04-08T14:00:03Z</time>
      </trkpt>
      <trkpt lat="45.06174" lon="0.65357">
        <ele>175.872</ele>
        <time>2019-04-08T14:00:23Z</time>
      </trkpt>
      <trkpt lat="45.0617" lon="0.65221">
        <ele>164.384</ele>
        <time>2019-04-08T14:00:43Z</time>
      </trkpt>
      <trkpt lat="45.0615" lon="0.65137">
        <ele>150.672</ele>
        <time>2019-04-08T14:01:03Z</time>
      </trkpt>
      <trkpt lat="45.06122" lon="0.65111">
        <ele>149.218</ele>
        <time>2019-04-08T14:01:23Z</time>
      </trkpt>
      <trkpt lat="45.06109" lon="0.65006">
        <ele>142.143</ele>
        <time>2019-04-08T14:01:43Z</time>
      </trkpt>
      <trkpt lat="45.06074" lon="0.64924">
        <ele>132.964</ele>
        <time>2019-04-08T14:02:03Z</time>
      </trkpt>
      <trkpt lat="45.0602" lon="0.64758">
        <ele>125.71</ele>
        <time>2019-04-08T14:02:23Z</time>
      </trkpt>
      <trkpt lat="45.05948" lon="0.64646">
        <ele>113.908</ele>
        <time>2019-04-08T14:02:43Z</time>
      </trkpt>
      <trkpt lat="45.05828" lon="0.64282">
        <ele>101.547</ele>
        <time>2019-04-08T14:03:03Z</time>
      </trkpt>
      <trkpt lat="45.05702" lon="0.63999">
        <ele>112.089</ele>
        <time>2019-04-08T14:03:23Z</time>
      </trkpt>
      <trkpt lat="45.05691" lon="0.63877">
        <ele>120.114</ele>
        <time>2019-04-08T14:03:43Z</time>
      </trkpt>
      <trkpt lat="45.05628" lon="0.63757">
        <ele>125.925</ele>
        <time>2019-04-08T14:04:03Z</time>
      </trkpt>
      <trkpt lat="45.05602" lon="0.63589">
        <ele>127.619</ele>
        <time>2019-04-08T14:04:23Z</time>
      </trkpt>
      <trkpt lat="45.05583" lon="0.63541">
        <ele>134.671</ele>
        <time>2019-04-08T14:04:43Z</time>
      </trkpt>
      <trkpt lat="45.05534" lon="0.63463">
        <ele>140.199</ele>
        <time>2019-04-08T14:05:03Z</time>
      </trkpt>
      <trkpt lat="45.05597" lon="0.63379">
        <ele>149.915</ele>
        <time>2019-04-08T14:05:23Z</time>
      </trkpt>
      <trkpt lat="45.0562" lon="0.63327">
        <ele>161.193</ele>
        <time>2019-04-08T14:05:43Z</time>
      </trkpt>
      <trkpt lat="45.05558" lon="0.63209">
        <ele>183.665</ele>
        <time>2019-04-08T14:06:03Z</time>
      </trkpt>
      <trkpt lat="45.0547" lon="0.63128">
        <ele>188.921</ele>
        <time>2019-04-08T14:06:23Z</time>
      </trkpt>
      <trkpt lat="45.05391" lon="0.63094">
        <ele>188.308</ele>
        <time>2019-04-08T14:06:43Z</time>
      </trkpt>
      <trkpt lat="45.05324" lon="0.63092">
        <ele>190.772</ele>
        <time>2019-04-08T14:07:03Z</time>
      </trkpt>
      <trkpt lat="45.05199" lon="0.63122">
        <ele>196.154</ele>
        <time>2019-04-08T14:07:23Z</time>
      </trkpt>
      <trkpt lat="45.05156" lon="0.63157">
        <ele>198.469</ele>
        <time>2019-04-08T14:07:43Z</time>
      </trkpt>
      <trkpt lat="45.05044" lon="0.63157">
        <ele>202.26</ele>
        <time>2019-04-08T14:08:03Z</time>
      </trkpt>
      <trkpt lat="45.04974" lon="0.63078">
        <ele>201.124</ele>
        <time>2019-04-08T14:08:23Z</time>
      </trkpt>
      <trkpt lat="45.04937" lon="0.63072">
        <ele>199.846</ele>
        <time>2019-04-08T14:08:43Z</time>
      </trkpt>
      <trkpt lat="45.04824" lon="0.63088">
        <ele>198.134</ele>
        <time>2019-04-08T14:09:03Z</time>
      </trkpt>
      <trkpt lat="45.0476" lon="0.63028">
        <ele>191.98</ele>
        <time>2019-04-08T14:09:23Z</time>
      </trkpt>
      <trkpt lat="45.04647" lon="0.63016">
        <ele>188.088</ele>
        <time>2019-04-08T14:09:43Z</time>
      </trkpt>
      <trkpt lat="45.04456" lon="0.62932">
        <ele>171.024</ele>
        <time>2019-04-08T14:10:03Z</time>
      </trkpt>
      <trkpt lat="45.04438" lon="0.62914">
        <ele>169.526</ele>
        <time>2019-04-08T14:10:23Z</time>
      </trkpt>
      <trkpt lat="45.04412" lon="0.62944">
        <ele>173.508</ele>
        <time>2019-04-08T14:10:43Z</time>
      </trkpt>
      <trkpt lat="45.04382" lon="0.63026">
        <ele>177.051</ele>
        <time>2019-04-08T14:11:03Z</time>
      </trkpt>
      <trkpt lat="45.04265" lon="0.63149">
        <ele>182.063</ele>
        <time>2019-04-08T14:11:23Z</time>
      </trkpt>
      <trkpt lat="45.04223" lon="0.63181">
        <ele>184.368</ele>
        <time>2019-04-08T14:11:43Z</time>
      </trkpt>
      <trkpt lat="45.04176" lon="0.63249">
        <ele>183.969</ele>
        <time>2019-04-08T14:12:03Z</time>
      </trkpt>
      <trkpt lat="45.04129" lon="0.63283">
        <ele>187.793</ele>
        <time>2019-04-08T14:12:23Z</time>
      </trkpt>
      <trkpt lat="45.04091" lon="0.63299">
        <ele>188.015</ele>
        <time>2019-04-08T14:12:43Z</time>
      </trkpt>
      <trkpt lat="45.0403" lon="0.63373">
        <ele>191.173</ele>
        <time>2019-04-08T14:13:03Z</time>
      </trkpt>
      <trkpt lat="45.03931" lon="0.63359">
        <ele>188.899</ele>
        <time>2019-04-08T14:13:23Z</time>
      </trkpt>
      <trkpt lat="45.03814" lon="0.63405">
        <ele>192.064</ele>
        <time>2019-04-08T14:13:43Z</time>
      </trkpt>
      <trkpt lat="45.03754" lon="0.63391">
        <ele>192.706</ele>
        <time>2019-04-08T14:14:03Z</time>
      </trkpt>
      <trkpt lat="45.03691" lon="0.63429">
        <ele>193.516</ele>
        <time>2019-04-08T14:14:23Z</time>
      </trkpt>
      <trkpt lat="45.03614" lon="0.63509">
        <ele>194.008</ele>
        <time>2019-04-08T14:14:43Z</time>
      </trkpt>
      <trkpt lat="45.03556" lon="0.63487">
        <ele>190.539</ele>
        <time>2019-04-08T14:15:03Z</time>
      </trkpt>
      <trkpt lat="45.03498" lon="0.63523">
        <ele>193.831</ele>
        <time>2019-04-08T14:15:23Z</time>
      </trkpt>
      <trkpt lat="45.03156" lon="0.62744">
        <ele>202.256</ele>
        <time>2019-04-08T14:15:43Z</time>
      </trkpt>
      <trkpt lat="45.03135" lon="0.626">
        <ele>205.747</ele>
        <time>2019-04-08T14:16:03Z</time>
      </trkpt>
      <trkpt lat="45.03058" lon="0.62466">
        <ele>211.331</ele>
        <time>2019-04-08T14:16:23Z</time>
      </trkpt>
      <trkpt lat="45.03004" lon="0.62506">
        <ele>212.313</ele>
        <time>2019-04-08T14:16:43Z</time>
      </trkpt>
      <trkpt lat="45.02941" lon="0.6236">
        <ele>213.671</ele>
        <time>2019-04-08T14:17:03Z</time>
      </trkpt>
      <trkpt lat="45.02948" lon="0.62302">
        <ele>214.447</ele>
        <time>2019-04-08T14:17:23Z</time>
      </trkpt>
      <trkpt lat="45.0294" lon="0.62232">
        <ele>216.215</ele>
        <time>2019-04-08T14:17:43Z</time>
      </trkpt>
      <trkpt lat="45.0294" lon="0.61993">
        <ele>227.065</ele>
        <time>2019-04-08T14:18:03Z</time>
      </trkpt>
      <trkpt lat="45.02973" lon="0.61978">
        <ele>227.311</ele>
        <time>2019-04-08T14:18:23Z</time>
      </trkpt>
      <trkpt lat="45.03" lon="0.61932">
        <ele>228.908</ele>
        <time>2019-04-08T14:18:43Z</time>
      </trkpt>
      <trkpt lat="45.02948" lon="0.619">
        <ele>228.594</ele>
        <time>2019-04-08T14:19:03Z</time>
      </trkpt>
      <trkpt lat="45.03036" lon="0.61763">
        <ele>229.176</ele>
        <time>2019-04-08T14:19:23Z</time>
      </trkpt>
      <trkpt lat="45.03037" lon="0.61321">
        <ele>232.861</ele>
        <time>2019-04-08T14:19:43Z</time>
      </trkpt>
      <trkpt lat="45.03068" lon="0.61036">
        <ele>231.012</ele>
        <time>2019-04-08T14:20:03Z</time>
      </trkpt>
      <trkpt lat="45.03044" lon="0.60992">
        <ele>231.376</ele>
        <time>2019-04-08T14:20:23Z</time>
      </trkpt>
      <trkpt lat="45.02996" lon="0.6069">
        <ele>224.788</ele>
        <time>2019-04-08T14:20:43Z</time>
      </trkpt>
      <trkpt lat="45.03002" lon="0.60592">
        <ele>225.636</ele>
        <time>2019-04-08T14:21:03Z</time>
      </trkpt>
      <trkpt lat="45.02665" lon="0.60582">
        <ele>203.082</ele>
        <time>2019-04-08T14:21:23Z</time>
      </trkpt>
      <trkpt lat="45.02603" lon="0.60546">
        <ele>202.786</ele>
        <time>2019-04-08T14:21:43Z</time>
      </trkpt>
      <trkpt lat="45.02563" lon="0.6054">
        <ele>199.46</ele>
        <time>2019-04-08T14:22:03Z</time>
      </trkpt>
      <trkpt lat="45.02543" lon="0.60514">
        <ele>199.626</ele>
        <time>2019-04-08T14:22:23Z</time>
      </trkpt>
      <trkpt lat="45.02389" lon="0.6058">
        <ele>184.008</ele>
        <time>2019-04-08T14:22:43Z</time>
      </trkpt>
      <trkpt lat="45.02331" lon="0.60626">
        <ele>181.741</ele>
        <time>2019-04-08T14:23:03Z</time>
      </trkpt>
      <trkpt lat="45.02274" lon="0.606">
        <ele>180.983</ele>
        <time>2019-04-08T14:23:23Z</time>
      </trkpt>
      <trkpt lat="45.02294" lon="0.60536">
        <ele>178.518</ele>
        <time>2019-04-08T14:23:43Z</time>
      </trkpt>
      <trkpt lat="45.02192" lon="0.60372">
        <ele>175.769</ele>
        <time>2019-04-08T14:24:03Z</time>
      </trkpt>
      <trkpt lat="45.02189" lon="0.6027">
        <ele>174.363</ele>
        <time>2019-04-08T14:24:23Z</time>
      </trkpt>
      <trkpt lat="45.02167" lon="0.60171">
        <ele>172.685</ele>
        <time>2019-04-08T14:24:43Z</time>
      </trkpt>
      <trkpt lat="45.02109" lon="0.60091">
        <ele>171.433</ele>
        <time>2019-04-08T14:25:03Z</time>
      </trkpt>
      <trkpt lat="45.02065" lon="0.59915">
        <ele>164.619</ele>
        <time>2019-04-08T14:25:23Z</time>
      </trkpt>
      <trkpt lat="45.02008" lon="0.59863">
        <ele>162.828</ele>
        <time>2019-04-08T14:25:43Z</time>
      </trkpt>
      <trkpt lat="45.01929" lon="0.59771">
        <ele>168.389</ele>
        <time>2019-04-08T14:26:03Z</time>
      </trkpt>
      <trkpt lat="45.01857" lon="0.59709">
        <ele>171.217</ele>
        <time>2019-04-08T14:26:23Z</time>
      </trkpt>
      <trkpt lat="45.01742" lon="0.59673">
        <ele>162.908</ele>
        <time>2019-04-08T14:26:43Z</time>
      </trkpt>
      <trkpt lat="45.0167" lon="0.59623">
        <ele>163.775</ele>
        <time>2019-04-08T14:27:03Z</time>
      </trkpt>
      <trkpt lat="45.01513" lon="0.59553">
        <ele>160.897</ele>
        <time>2019-04-08T14:27:23Z</time>
      </trkpt>
      <trkpt lat="45.01411" lon="0.59511">
        <ele>154.522</ele>
        <time>2019-04-08T14:27:43Z</time>
      </trkpt>
      <trkpt lat="45.01101" lon="0.59315">
        <ele>149.853</ele>
        <time>2019-04-08T14:28:03Z</time>
      </trkpt>
      <trkpt lat="45.01063" lon="0.59279">
        <ele>147.667</ele>
        <time>2019-04-08T14:28:23Z</time>
      </trkpt>
      <trkpt lat="45.00945" lon="0.59138">
        <ele>145.839</ele>
        <time>2019-04-08T14:28:43Z</time>
      </trkpt>
      <trkpt lat="45.00812" lon="0.59072">
        <ele>143.177</ele>
        <time>2019-04-08T14:29:03Z</time>
      </trkpt>
      <trkpt lat="45.00749" lon="0.59014">
        <ele>142.893</ele>
        <time>2019-04-08T14:29:23Z</time>
      </trkpt>
      <trkpt lat="45.00681" lon="0.58962">
        <ele>144.415</ele>
        <time>2019-04-08T14:29:43Z</time>
      </trkpt>
      <trkpt lat="45.00583" lon="0.58864">
        <ele>145.365</ele>
        <time>2019-04-08T14:30:03Z</time>
      </trkpt>
      <trkpt lat="45.00543" lon="0.58836">
        <ele>145.611</ele>
        <time>2019-04-08T14:30:23Z</time>
      </trkpt>
      <trkpt lat="45.00495" lon="0.58788">
        <ele>151.008</ele>
        <time>2019-04-08T14:30:43Z</time>
      </trkpt>
      <trkpt lat="45.00069" lon="0.58772">
        <ele>148.434</ele>
        <time>2019-04-08T14:31:03Z</time>
      </trkpt>
      <trkpt lat="45.00001" lon="0.58726">
        <ele>148.326</ele>
        <time>2019-04-08T14:31:23Z</time>
      </trkpt>
      <trkpt lat="44.99935" lon="0.58734">
        <ele>149.811</ele>
        <time>2019-04-08T14:31:43Z</time>
      </trkpt>
      <trkpt lat="44.99909" lon="0.5881">
        <ele>141.532</ele>
        <time>2019-04-08T14:32:03Z</time>
      </trkpt>
      <trkpt lat="44.99858" lon="0.58842">
        <ele>136.626</ele>
        <time>2019-04-08T14:32:23Z</time>
      </trkpt>
      <trkpt lat="44.99725" lon="0.58806">
        <ele>130.188</ele>
        <time>2019-04-08T14:32:43Z</time>
      </trkpt>
      <trkpt lat="44.99644" lon="0.58854">
        <ele>129.886</ele>
        <time>2019-04-08T14:33:03Z</time>
      </trkpt>
      <trkpt lat="44.99381" lon="0.5882">
        <ele>130.882</ele>
        <time>2019-04-08T14:33:23Z</time>
      </trkpt>
      <trkpt lat="44.9917" lon="0.58828">
        <ele>135.861</ele>
        <time>2019-04-08T14:33:43Z</time>
      </trkpt>
      <trkpt lat="44.99058" lon="0.58806">
        <ele>135.821</ele>
        <time>2019-04-08T14:34:03Z</time>
      </trkpt>
      <trkpt lat="44.99021" lon="0.58838">
        <ele>139.813</ele>
        <time>2019-04-08T14:34:23Z</time>
      </trkpt>
      <trkpt lat="44.98977" lon="0.58964">
        <ele>135.908</ele>
        <time>2019-04-08T14:34:43Z</time>
      </trkpt>
      <trkpt lat="44.98956" lon="0.59094">
        <ele>138.169</ele>
        <time>2019-04-08T14:35:03Z</time>
      </trkpt>
      <trkpt lat="44.98912" lon="0.59295">
        <ele>130.331</ele>
        <time>2019-04-08T14:35:23Z</time>
      </trkpt>
      <trkpt lat="44.98874" lon="0.59361">
        <ele>129.316</ele>
        <time>2019-04-08T14:35:43Z</time>
      </trkpt>
      <trkpt lat="44.98683" lon="0.59399">
        <ele>130.187</ele>
        <time>2019-04-08T14:36:03Z</time>
      </trkpt>
      <trkpt lat="44.98745" lon="0.58948">
        <ele>127.731</ele>
        <time>2019-04-08T14:36:23Z</time>
      </trkpt>
      <trkpt lat="44.98694" lon="0.589">
        <ele>131.453</ele>
        <time>2019-04-08T14:36:43Z</time>
      </trkpt>
      <trkpt lat="44.98556" lon="0.5887">
        <ele>142.611</ele>
        <time>2019-04-08T14:37:03Z</time>
      </trkpt>
      <trkpt lat="44.98479" lon="0.58884">
        <ele>144.017</ele>
        <time>2019-04-08T14:37:23Z</time>
      </trkpt>
      <trkpt lat="44.98432" lon="0.5886">
        <ele>147.074</ele>
        <time>2019-04-08T14:37:43Z</time>
      </trkpt>
      <trkpt lat="44.98422" lon="0.58806">
        <ele>153.556</ele>
        <time>2019-04-08T14:38:03Z</time>
      </trkpt>
      <trkpt lat="44.98325" lon="0.58736">
        <ele>158.721</ele>
        <time>2019-04-08T14:38:23Z</time>
      </trkpt>
      <trkpt lat="44.98199" lon="0.5858">
        <ele>164.408</ele>
        <time>2019-04-08T14:38:43Z</time>
      </trkpt>
      <trkpt lat="44.98105" lon="0.58508">
        <ele>171.69</ele>
        <time>2019-04-08T14:39:03Z</time>
      </trkpt>
      <trkpt lat="44.98068" lon="0.5844">
        <ele>174.752</ele>
        <time>2019-04-08T14:39:23Z</time>
      </trkpt>
      <trkpt lat="44.9809" lon="0.5837">
        <ele>175.167</ele>
        <time>2019-04-08T14:39:43Z</time>
      </trkpt>
      <trkpt lat="44.98115" lon="0.5834">
        <ele>174.828</ele>
        <time>2019-04-08T14:40:03Z</time>
      </trkpt>
      <trkpt lat="44.98149" lon="0.58231">
        <ele>174.862</ele>
        <time>2019-04-08T14:40:23Z</time>
      </trkpt>
      <trkpt lat="44.98121" lon="0.58127">
        <ele>173.664</ele>
        <time>2019-04-08T14:40:43Z</time>
      </trkpt>
      <trkpt lat="44.98047" lon="0.58037">
        <ele>169.012</ele>
        <time>2019-04-08T14:41:03Z</time>
      </trkpt>
      <trkpt lat="44.98003" lon="0.57907">
        <ele>159.928</ele>
        <time>2019-04-08T14:41:23Z</time>
      </trkpt>
      <trkpt lat="44.98047" lon="0.57809">
        <ele>155.027</ele>
        <time>2019-04-08T14:41:43Z</time>
      </trkpt>
      <trkpt lat="44.97973" lon="0.57775">
        <ele>149.668</ele>
        <time>2019-04-08T14:42:03Z</time>
      </trkpt>
      <trkpt lat="44.9794" lon="0.57695">
        <ele>138.614</ele>
        <time>2019-04-08T14:42:23Z</time>
      </trkpt>
      <trkpt lat="44.97889" lon="0.57725">
        <ele>136.908</ele>
        <time>2019-04-08T14:42:43Z</time>
      </trkpt>
      <trkpt lat="44.97755" lon="0.57915">
        <ele>139.215</ele>
        <time>2019-04-08T14:43:03Z</time>
      </trkpt>
      <trkpt lat="44.97736" lon="0.58097">
        <ele>143.787</ele>
        <time>2019-04-08T14:43:23Z</time>
      </trkpt>
      <trkpt lat="44.97663" lon="0.58009">
        <ele>139.142</ele>
        <time>2019-04-08T14:43:43Z</time>
      </trkpt>
      <trkpt lat="44.97551" lon="0.57939">
        <ele>150.543</ele>
        <time>2019-04-08T14:44:03Z</time>
      </trkpt>
      <trkpt lat="44.97459" lon="0.57815">
        <ele>166.357</ele>
        <time>2019-04-08T14:44:23Z</time>
      </trkpt>
      <trkpt lat="44.97471" lon="0.57769">
        <ele>166.919</ele>
        <time>2019-04-08T14:44:43Z</time>
      </trkpt>
      <trkpt lat="44.97272" lon="0.57743">
        <ele>168.957</ele>
        <time>2019-04-08T14:45:03Z</time>
      </trkpt>
      <trkpt lat="44.97172" lon="0.57771">
        <ele>175.043</ele>
        <time>2019-04-08T14:45:23Z</time>
      </trkpt>
      <trkpt lat="44.97076" lon="0.57831">
        <ele>181.168</ele>
        <time>2019-04-08T14:45:43Z</time>
      </trkpt>
      <trkpt lat="44.97029" lon="0.57841">
        <ele>180.242</ele>
        <time>2019-04-08T14:46:03Z</time>
      </trkpt>
      <trkpt lat="44.96968" lon="0.57899">
        <ele>178.726</ele>
        <time>2019-04-08T14:46:23Z</time>
      </trkpt>
      <trkpt lat="44.96846" lon="0.57829">
        <ele>180.208</ele>
        <time>2019-04-08T14:46:43Z</time>
      </trkpt>
      <trkpt lat="44.96767" lon="0.57813">
        <ele>184.369</ele>
        <time>2019-04-08T14:47:03Z</time>
      </trkpt>
      <trkpt lat="44.9669" lon="0.57725">
        <ele>183.511</ele>
        <time>2019-04-08T14:47:23Z</time>
      </trkpt>
      <trkpt lat="44.96662" lon="0.57651">
        <ele>178.636</ele>
        <time>2019-04-08T14:47:43Z</time>
      </trkpt>
      <trkpt lat="44.96644" lon="0.57503">
        <ele>176.227</ele>
        <time>2019-04-08T14:48:03Z</time>
      </trkpt>
      <trkpt lat="44.96608" lon="0.57431">
        <ele>177.131</ele>
        <time>2019-04-08T14:48:23Z</time>
      </trkpt>
      <trkpt lat="44.96585" lon="0.57264">
        <ele>181.263</ele>
        <time>2019-04-08T14:48:43Z</time>
      </trkpt>
      <trkpt lat="44.96566" lon="0.57256">
        <ele>182.161</ele>
        <time>2019-04-08T14:49:03Z</time>
      </trkpt>
      <trkpt lat="44.96581" lon="0.57152">
        <ele>186.697</ele>
        <time>2019-04-08T14:49:23Z</time>
      </trkpt>
      <trkpt lat="44.96595" lon="0.57">
        <ele>189.987</ele>
        <time>2019-04-08T14:49:43Z</time>
      </trkpt>
      <trkpt lat="44.96554" lon="0.56832">
        <ele>195.742</ele>
        <time>2019-04-08T14:50:03Z</time>
      </trkpt>
      <trkpt lat="44.9652" lon="0.56576">
        <ele>200.926</ele>
        <time>2019-04-08T14:50:23Z</time>
      </trkpt>
      <trkpt lat="44.96393" lon="0.56512">
        <ele>187.708</ele>
        <time>2019-04-08T14:50:43Z</time>
      </trkpt>
      <trkpt lat="44.96346" lon="0.564">
        <ele>180.031</ele>
        <time>2019-04-08T14:51:03Z</time>
      </trkpt>
      <trkpt lat="44.96209" lon="0.56371">
        <ele>173.583</ele>
        <time>2019-04-08T14:51:23Z</time>
      </trkpt>
      <trkpt lat="44.96091" lon="0.56329">
        <ele>172.318</ele>
        <time>2019-04-08T14:51:43Z</time>
      </trkpt>
      <trkpt lat="44.95995" lon="0.56245">
        <ele>175.669</ele>
        <time>2019-04-08T14:52:03Z</time>
      </trkpt>
      <trkpt lat="44.95935" lon="0.56155">
        <ele>174.113</ele>
        <time>2019-04-08T14:52:23Z</time>
      </trkpt>
      <trkpt lat="44.95843" lon="0.56099">
        <ele>171.795</ele>
        <time>2019-04-08T14:52:43Z</time>
      </trkpt>
      <trkpt lat="44.95758" lon="0.56077">
        <ele>172.943</ele>
        <time>2019-04-08T14:53:03Z</time>
      </trkpt>
      <trkpt lat="44.95636" lon="0.56065">
        <ele>176.769</ele>
        <time>2019-04-08T14:53:23Z</time>
      </trkpt>
      <trkpt lat="44.95531" lon="0.56031">
        <ele>173.616</ele>
        <time>2019-04-08T14:53:43Z</time>
      </trkpt>
      <trkpt lat="44.95445" lon="0.55967">
        <ele>169.176</ele>
        <time>2019-04-08T14:54:03Z</time>
      </trkpt>
      <trkpt lat="44.95357" lon="0.55947">
        <ele>166.613</ele>
        <time>2019-04-08T14:54:23Z</time>
      </trkpt>
      <trkpt lat="44.95237" lon="0.55859">
        <ele>164.308</ele>
        <time>2019-04-08T14:54:43Z</time>
      </trkpt>
      <trkpt lat="44.95038" lon="0.55771">
        <ele>159.124</ele>
        <time>2019-04-08T14:55:03Z</time>
      </trkpt>
      <trkpt lat="44.94958" lon="0.55711">
        <ele>155.596</ele>
        <time>2019-04-08T14:55:23Z</time>
      </trkpt>
      <trkpt lat="44.9488" lon="0.55699">
        <ele>152.541</ele>
        <time>2019-04-08T14:55:43Z</time>
      </trkpt>
      <trkpt lat="44.94769" lon="0.55753">
        <ele>148.372</ele>
        <time>2019-04-08T14:56:03Z</time>
      </trkpt>
      <trkpt lat="44.94694" lon="0.55759">
        <ele>145.296</ele>
        <time>2019-04-08T14:56:23Z</time>
      </trkpt>
      <trkpt lat="44.94505" lon="0.55742">
        <ele>144.538</ele>
        <time>2019-04-08T14:56:43Z</time>
      </trkpt>
      <trkpt lat="44.94427" lon="0.55776">
        <ele>143.316</ele>
        <time>2019-04-08T14:57:03Z</time>
      </trkpt>
      <trkpt lat="44.94153" lon="0.55832">
        <ele>146.332</ele>
        <time>2019-04-08T14:57:23Z</time>
      </trkpt>
      <trkpt lat="44.93959" lon="0.55947">
        <ele>142.515</ele>
        <time>2019-04-08T14:57:43Z</time>
      </trkpt>
      <trkpt lat="44.93878" lon="0.55944">
        <ele>135.165</ele>
        <time>2019-04-08T14:58:03Z</time>
      </trkpt>
      <trkpt lat="44.93821" lon="0.55963">
        <ele>128.511</ele>
        <time>2019-04-08T14:58:23Z</time>
      </trkpt>
      <trkpt lat="44.93585" lon="0.55949">
        <ele>114.508</ele>
        <time>2019-04-08T14:58:43Z</time>
      </trkpt>
      <trkpt lat="44.93562" lon="0.55926">
        <ele>109.824</ele>
        <time>2019-04-08T14:59:03Z</time>
      </trkpt>
      <trkpt lat="44.93474" lon="0.55914">
        <ele>95.616</ele>
        <time>2019-04-08T14:59:23Z</time>
      </trkpt>
      <trkpt lat="44.93453" lon="0.55949">
        <ele>95.141</ele>
        <time>2019-04-08T14:59:43Z</time>
      </trkpt>
      <trkpt lat="44.93427" lon="0.5596">
        <ele>93.412</ele>
        <time>2019-04-08T15:00:03Z</time>
      </trkpt>
      <trkpt lat="44.93404" lon="0.56">
        <ele>87.956</ele>
        <time>2019-04-08T15:00:23Z</time>
      </trkpt>
      <trkpt lat="44.93391" lon="0.55843">
        <ele>82.648</ele>
        <time>2019-04-08T15:00:43Z</time>
      </trkpt>
      <trkpt lat="44.93334" lon="0.55737">
        <ele>85.436</ele>
        <time>2019-04-08T15:01:03Z</time>
      </trkpt>
      <trkpt lat="44.93176" lon="0.55859">
        <ele>81.262</ele>
        <time>2019-04-08T15:01:23Z</time>
      </trkpt>
      <trkpt lat="44.93097" lon="0.55868">
        <ele>80.995</ele>
        <time>2019-04-08T15:01:43Z</time>
      </trkpt>
      <trkpt lat="44.93018" lon="0.55839">
        <ele>82.249</ele>
        <time>2019-04-08T15:02:03Z</time>
      </trkpt>
      <trkpt lat="44.92883" lon="0.55802">
        <ele>79.823</ele>
        <time>2019-04-08T15:02:23Z</time>
      </trkpt>
      <trkpt lat="44.92854" lon="0.55719">
        <ele>83.008</ele>
        <time>2019-04-08T15:02:43Z</time>
      </trkpt>
      <trkpt lat="44.92779" lon="0.55696">
        <ele>85.062</ele>
        <time>2019-04-08T15:03:03Z</time>
      </trkpt>
      <trkpt lat="44.92647" lon="0.55698">
        <ele>81.674</ele>
        <time>2019-04-08T15:03:23Z</time>
      </trkpt>
      <trkpt lat="44.92497" lon="0.55671">
        <ele>84.429</ele>
        <time>2019-04-08T15:03:43Z</time>
      </trkpt>
      <trkpt lat="44.92325" lon="0.55749">
        <ele>84.44</ele>
        <time>2019-04-08T15:04:03Z</time>
      </trkpt>
      <trkpt lat="44.92085" lon="0.5565">
        <ele>88.754</ele>
        <time>2019-04-08T15:04:23Z</time>
      </trkpt>
      <trkpt lat="44.92011" lon="0.55664">
        <ele>87.396</ele>
        <time>2019-04-08T15:04:43Z</time>
      </trkpt>
      <trkpt lat="44.91908" lon="0.55719">
        <ele>82.424</ele>
        <time>2019-04-08T15:05:03Z</time>
      </trkpt>
      <trkpt lat="44.91783" lon="0.55751">
        <ele>78.56</ele>
        <time>2019-04-08T15:05:23Z</time>
      </trkpt>
      <trkpt lat="44.91818" lon="0.55717">
        <ele>87.139</ele>
        <time>2019-04-08T15:05:43Z</time>
      </trkpt>
      <trkpt lat="44.91856" lon="0.55643">
        <ele>97.001</ele>
        <time>2019-04-08T15:06:03Z</time>
      </trkpt>
      <trkpt lat="44.91848" lon="0.55629">
        <ele>98.421</ele>
        <time>2019-04-08T15:06:23Z</time>
      </trkpt>
      <trkpt lat="44.91787" lon="0.55632">
        <ele>105.208</ele>
        <time>2019-04-08T15:06:43Z</time>
      </trkpt>
      <trkpt lat="44.91703" lon="0.5562">
        <ele>107.526</ele>
        <time>2019-04-08T15:07:03Z</time>
      </trkpt>
      <trkpt lat="44.9168" lon="0.5559">
        <ele>110.568</ele>
        <time>2019-04-08T15:07:23Z</time>
      </trkpt>
      <trkpt lat="44.91616" lon="0.55441">
        <ele>119.713</ele>
        <time>2019-04-08T15:07:43Z</time>
      </trkpt>
      <trkpt lat="44.91499" lon="0.553">
        <ele>115.544</ele>
        <time>2019-04-08T15:08:03Z</time>
      </trkpt>
      <trkpt lat="44.9146" lon="0.55298">
        <ele>114.488</ele>
        <time>2019-04-08T15:08:23Z</time>
      </trkpt>
      <trkpt lat="44.91154" lon="0.55199">
        <ele>96.25</ele>
        <time>2019-04-08T15:08:43Z</time>
      </trkpt>
      <trkpt lat="44.91051" lon="0.55135">
        <ele>95.078</ele>
        <time>2019-04-08T15:09:03Z</time>
      </trkpt>
      <trkpt lat="44.90994" lon="0.55045">
        <ele>90.034</ele>
        <time>2019-04-08T15:09:23Z</time>
      </trkpt>
      <trkpt lat="44.90846" lon="0.5499">
        <ele>85.241</ele>
        <time>2019-04-08T15:09:43Z</time>
      </trkpt>
      <trkpt lat="44.90761" lon="0.5493">
        <ele>80.081</ele>
        <time>2019-04-08T15:10:03Z</time>
      </trkpt>
      <trkpt lat="44.90657" lon="0.54926">
        <ele>76.209</ele>
        <time>2019-04-08T15:10:23Z</time>
      </trkpt>
      <trkpt lat="44.90598" lon="0.5496">
        <ele>77.908</ele>
        <time>2019-04-08T15:10:43Z</time>
      </trkpt>
      <trkpt lat="44.9055" lon="0.54935">
        <ele>71.427</ele>
        <time>2019-04-08T15:11:03Z</time>
      </trkpt>
      <trkpt lat="44.90547" lon="0.54892">
        <ele>68.199</ele>
        <time>2019-04-08T15:11:23Z</time>
      </trkpt>
      <trkpt lat="44.90503" lon="0.54891">
        <ele>67.754</ele>
        <time>2019-04-08T15:11:43Z</time>
      </trkpt>
      <trkpt lat="44.90484" lon="0.54828">
        <ele>69.325</ele>
        <time>2019-04-08T15:12:03Z</time>
      </trkpt>
      <trkpt lat="44.90433" lon="0.54803">
        <ele>70.219</ele>
        <time>2019-04-08T15:12:23Z</time>
      </trkpt>
      <trkpt lat="44.90361" lon="0.54519">
        <ele>97.781</ele>
        <time>2019-04-08T15:12:43Z</time>
      </trkpt>
      <trkpt lat="44.90315" lon="0.5447">
        <ele>100.759</ele>
        <time>2019-04-08T15:13:03Z</time>
      </trkpt>
      <trkpt lat="44.90199" lon="0.54445">
        <ele>109.815</ele>
        <time>2019-04-08T15:13:23Z</time>
      </trkpt>
      <trkpt lat="44.90116" lon="0.54346">
        <ele>118.787</ele>
        <time>2019-04-08T15:13:43Z</time>
      </trkpt>
      <trkpt lat="44.90045" lon="0.5422">
        <ele>131.642</ele>
        <time>2019-04-08T15:14:03Z</time>
      </trkpt>
      <trkpt lat="44.89958" lon="0.5413">
        <ele>129.626</ele>
        <time>2019-04-08T15:14:23Z</time>
      </trkpt>
      <trkpt lat="44.89919" lon="0.5416">
        <ele>129.808</ele>
        <time>2019-04-08T15:14:43Z</time>
      </trkpt>
      <trkpt lat="44.89795" lon="0.54176">
        <ele>133.651</ele>
        <time>2019-04-08T15:15:03Z</time>
      </trkpt>
      <trkpt lat="44.89686" lon="0.54171">
        <ele>135.463</ele>
        <time>2019-04-08T15:15:23Z</time>
      </trkpt>
      <trkpt lat="44.89618" lon="0.54203">
        <ele>134.688</ele>
        <time>2019-04-08T15:15:43Z</time>
      </trkpt>
      <trkpt lat="44.89531" lon="0.54364">
        <ele>122.859</ele>
        <time>2019-04-08T15:16:03Z</time>
      </trkpt>
      <trkpt lat="44.89512" lon="0.54307">
        <ele>127.583</ele>
        <time>2019-04-08T15:16:23Z</time>
      </trkpt>
      <trkpt lat="44.89515" lon="0.54238">
        <ele>131.575</ele>
        <time>2019-04-08T15:16:43Z</time>
      </trkpt>
      <trkpt lat="44.8946" lon="0.54123">
        <ele>131.153</ele>
        <time>2019-04-08T15:17:03Z</time>
      </trkpt>
      <trkpt lat="44.89388" lon="0.54061">
        <ele>131.999</ele>
        <time>2019-04-08T15:17:23Z</time>
      </trkpt>
      <trkpt lat="44.89303" lon="0.54128">
        <ele>131.275</ele>
        <time>2019-04-08T15:17:43Z</time>
      </trkpt>
      <trkpt lat="44.89261" lon="0.5416">
        <ele>129.828</ele>
        <time>2019-04-08T15:18:03Z</time>
      </trkpt>
      <trkpt lat="44.89201" lon="0.54238">
        <ele>127.82</ele>
        <time>2019-04-08T15:18:23Z</time>
      </trkpt>
      <trkpt lat="44.89131" lon="0.54183">
        <ele>123.208</ele>
        <time>2019-04-08T15:18:43Z</time>
      </trkpt>
      <trkpt lat="44.89083" lon="0.5419">
        <ele>121.48</ele>
        <time>2019-04-08T15:19:03Z</time>
      </trkpt>
      <trkpt lat="44.89105" lon="0.54137">
        <ele>123.532</ele>
        <time>2019-04-08T15:19:23Z</time>
      </trkpt>
      <trkpt lat="44.89069" lon="0.54079">
        <ele>126.317</ele>
        <time>2019-04-08T15:19:43Z</time>
      </trkpt>
      <trkpt lat="44.89002" lon="0.54019">
        <ele>128.218</ele>
        <time>2019-04-08T15:20:03Z</time>
      </trkpt>
      <trkpt lat="44.88956" lon="0.54003">
        <ele>125.042</ele>
        <time>2019-04-08T15:20:23Z</time>
      </trkpt>
      <trkpt lat="44.88894" lon="0.53886">
        <ele>118.814</ele>
        <time>2019-04-08T15:20:43Z</time>
      </trkpt>
      <trkpt lat="44.88839" lon="0.53757">
        <ele>114.762</ele>
        <time>2019-04-08T15:21:03Z</time>
      </trkpt>
      <trkpt lat="44.88772" lon="0.53661">
        <ele>111.258</ele>
        <time>2019-04-08T15:21:23Z</time>
      </trkpt>
      <trkpt lat="44.88699" lon="0.53601">
        <ele>102.749</ele>
        <time>2019-04-08T15:21:43Z</time>
      </trkpt>
      <trkpt lat="44.88652" lon="0.53497">
        <ele>99.402</ele>
        <time>2019-04-08T15:22:03Z</time>
      </trkpt>
      <trkpt lat="44.88575" lon="0.53449">
        <ele>90.522</ele>
        <time>2019-04-08T15:22:23Z</time>
      </trkpt>
      <trkpt lat="44.88533" lon="0.53382">
        <ele>88.308</ele>
        <time>2019-04-08T15:22:43Z</time>
      </trkpt>
      <trkpt lat="44.88538" lon="0.53231">
        <ele>85.887</ele>
        <time>2019-04-08T15:23:03Z</time>
      </trkpt>
      <trkpt lat="44.88531" lon="0.53095">
        <ele>82.659</ele>
        <time>2019-04-08T15:23:23Z</time>
      </trkpt>
      <trkpt lat="44.88422" lon="0.53044">
        <ele>70.044</ele>
        <time>2019-04-08T15:23:43Z</time>
      </trkpt>
      <trkpt lat="44.88428" lon="0.5295">
        <ele>67.495</ele>
        <time>2019-04-08T15:24:03Z</time>
      </trkpt>
      <trkpt lat="44.88388" lon="0.52718">
        <ele>56.029</ele>
        <time>2019-04-08T15:24:23Z</time>
      </trkpt>
      <trkpt lat="44.88417" lon="0.52504">
        <ele>51.211</ele>
        <time>2019-04-08T15:24:43Z</time>
      </trkpt>
      <trkpt lat="44.88437" lon="0.52511">
        <ele>51.839</ele>
        <time>2019-04-08T15:25:03Z</time>
      </trkpt>
      <trkpt lat="44.88445" lon="0.52437">
        <ele>51.345</ele>
        <time>2019-04-08T15:25:23Z</time>
      </trkpt>
      <trkpt lat="44.88503" lon="0.5226">
        <ele>61.571</ele>
        <time>2019-04-08T15:25:43Z</time>
      </trkpt>
      <trkpt lat="44.88516" lon="0.52175">
        <ele>66.041</ele>
        <time>2019-04-08T15:26:03Z</time>
      </trkpt>
      <trkpt lat="44.88556" lon="0.5206">
        <ele>71.815</ele>
        <time>2019-04-08T15:26:23Z</time>
      </trkpt>
      <trkpt lat="44.88565" lon="0.51947">
        <ele>79.908</ele>
        <time>2019-04-08T15:26:43Z</time>
      </trkpt>
      <trkpt lat="44.88562" lon="0.51782">
        <ele>92.63</ele>
        <time>2019-04-08T15:27:03Z</time>
      </trkpt>
      <trkpt lat="44.88583" lon="0.51704">
        <ele>97.042</ele>
        <time>2019-04-08T15:27:23Z</time>
      </trkpt>
      <trkpt lat="44.88595" lon="0.51612">
        <ele>100.097</ele>
        <time>2019-04-08T15:27:43Z</time>
      </trkpt>
      <trkpt lat="44.88616" lon="0.51582">
        <ele>99.578</ele>
        <time>2019-04-08T15:28:03Z</time>
      </trkpt>
      <trkpt lat="44.88805" lon="0.51561">
        <ele>114.642</ele>
        <time>2019-04-08T15:28:23Z</time>
      </trkpt>
      <trkpt lat="44.88792" lon="0.51329">
        <ele>106.394</ele>
        <time>2019-04-08T15:28:43Z</time>
      </trkpt>
      <trkpt lat="44.88749" lon="0.51308">
        <ele>99.152</ele>
        <time>2019-04-08T15:29:03Z</time>
      </trkpt>
      <trkpt lat="44.8873" lon="0.5105">
        <ele>103.038</ele>
        <time>2019-04-08T15:29:23Z</time>
      </trkpt>
      <trkpt lat="44.88616" lon="0.51071">
        <ele>100.998</ele>
        <time>2019-04-08T15:29:43Z</time>
      </trkpt>
      <trkpt lat="44.8851" lon="0.51053">
        <ele>96.315</ele>
        <time>2019-04-08T15:30:03Z</time>
      </trkpt>
      <trkpt lat="44.88383" lon="0.5111">
        <ele>87.126</ele>
        <time>2019-04-08T15:30:23Z</time>
      </trkpt>
      <trkpt lat="44.88308" lon="0.51108">
        <ele>83.208</ele>
        <time>2019-04-08T15:30:43Z</time>
      </trkpt>
      <trkpt lat="44.88223" lon="0.51002">
        <ele>78.862</ele>
        <time>2019-04-08T15:31:03Z</time>
      </trkpt>
      <trkpt lat="44.88127" lon="0.50952">
        <ele>80.074</ele>
        <time>2019-04-08T15:31:23Z</time>
      </trkpt>
      <trkpt lat="44.88075" lon="0.50906">
        <ele>77.819</ele>
        <time>2019-04-08T15:31:43Z</time>
      </trkpt>
      <trkpt lat="44.87959" lon="0.50857">
        <ele>72.11</ele>
        <time>2019-04-08T15:32:03Z</time>
      </trkpt>
      <trkpt lat="44.87829" lon="0.50825">
        <ele>63.244</ele>
        <time>2019-04-08T15:32:23Z</time>
      </trkpt>
      <trkpt lat="44.87811" lon="0.50788">
        <ele>60.326</ele>
        <time>2019-04-08T15:32:43Z</time>
      </trkpt>
      <trkpt lat="44.87633" lon="0.50814">
        <ele>45.334</ele>
        <time>2019-04-08T15:33:03Z</time>
      </trkpt>
      <trkpt lat="44.87511" lon="0.502">
        <ele>48.28</ele>
        <time>2019-04-08T15:33:23Z</time>
      </trkpt>
      <trkpt lat="44.87439" lon="0.50158">
        <ele>42.963</ele>
        <time>2019-04-08T15:33:43Z</time>
      </trkpt>
      <trkpt lat="44.87436" lon="0.50096">
        <ele>43.344</ele>
        <time>2019-04-08T15:34:03Z</time>
      </trkpt>
      <trkpt lat="44.87392" lon="0.50022">
        <ele>42.218</ele>
        <time>2019-04-08T15:34:23Z</time>
      </trkpt>
      <trkpt lat="44.8739" lon="0.49951">
        <ele>44.408</ele>
        <time>2019-04-08T15:34:43Z</time>
      </trkpt>
      <trkpt lat="44.87361" lon="0.49896">
        <ele>43.919</ele>
        <time>2019-04-08T15:35:03Z</time>
      </trkpt>
      <trkpt lat="44.87306" lon="0.49882">
        <ele>39.911</ele>
        <time>2019-04-08T15:35:23Z</time>
      </trkpt>
      <trkpt lat="44.87284" lon="0.49848">
        <ele>39.496</ele>
        <time>2019-04-08T15:35:43Z</time>
      </trkpt>
      <trkpt lat="44.8728" lon="0.4976">
        <ele>39.787</ele>
        <time>2019-04-08T15:36:03Z</time>
      </trkpt>
      <trkpt lat="44.8718" lon="0.49802">
        <ele>38.631</ele>
        <time>2019-04-08T15:36:23Z</time>
      </trkpt>
      <trkpt lat="44.87148" lon="0.49843">
        <ele>38.743</ele>
        <time>2019-04-08T15:36:43Z</time>
      </trkpt>
      <trkpt lat="44.871" lon="0.49848">
        <ele>38.371</ele>
        <time>2019-04-08T15:37:03Z</time>
      </trkpt>
      <trkpt lat="44.87102" lon="0.49809">
        <ele>38.017</ele>
        <time>2019-04-08T15:37:23Z</time>
      </trkpt>
      <trkpt lat="44.87068" lon="0.49776">
        <ele>37.761</ele>
        <time>2019-04-08T15:37:43Z</time>
      </trkpt>
      <trkpt lat="44.87053" lon="0.49742">
        <ele>37.221</ele>
        <time>2019-04-08T15:38:03Z</time>
      </trkpt>
      <trkpt lat="44.87024" lon="0.49684">
        <ele>37.413</ele>
        <time>2019-04-08T15:38:23Z</time>
      </trkpt>
      <trkpt lat="44.86932" lon="0.4962">
        <ele>38.608</ele>
        <time>2019-04-08T15:38:43Z</time>
      </trkpt>
      <trkpt lat="44.86916" lon="0.49544">
        <ele>37.049</ele>
        <time>2019-04-08T15:39:03Z</time>
      </trkpt>
      <trkpt lat="44.86892" lon="0.49519">
        <ele>36.681</ele>
        <time>2019-04-08T15:39:23Z</time>
      </trkpt>
      <trkpt lat="44.86853" lon="0.49496">
        <ele>36.546</ele>
        <time>2019-04-08T15:39:43Z</time>
      </trkpt>
      <trkpt lat="44.8683" lon="0.4947">
        <ele>37.047</ele>
        <time>2019-04-08T15:40:03Z</time>
      </trkpt>
      <trkpt lat="44.86802" lon="0.49448">
        <ele>37.021</ele>
        <time>2019-04-08T15:40:23Z</time>
      </trkpt>
      <trkpt lat="44.86782" lon="0.49457">
        <ele>37.063</ele>
        <time>2019-04-08T15:40:43Z</time>
      </trkpt>
      <trkpt lat="44.86758" lon="0.49413">
        <ele>36.941</ele>
        <time>2019-04-08T15:41:03Z</time>
      </trkpt>
      <trkpt lat="44.86706" lon="0.49385">
        <ele>37.087</ele>
        <time>2019-04-08T15:41:23Z</time>
      </trkpt>
      <trkpt lat="44.86641" lon="0.49275">
        <ele>38.261</ele>
        <time>2019-04-08T15:41:43Z</time>
      </trkpt>
      <trkpt lat="44.8658" lon="0.49238">
        <ele>37.121</ele>
        <time>2019-04-08T15:42:03Z</time>
      </trkpt>
      <trkpt lat="44.86571" lon="0.4919">
        <ele>36.813</ele>
        <time>2019-04-08T15:42:23Z</time>
      </trkpt>
      <trkpt lat="44.86559" lon="0.49075">
        <ele>37.108</ele>
        <time>2019-04-08T15:42:43Z</time>
      </trkpt>
      <trkpt lat="44.86522" lon="0.49043">
        <ele>38.579</ele>
        <time>2019-04-08T15:43:03Z</time>
      </trkpt>
      <trkpt lat="44.86473" lon="0.49027">
        <ele>39.681</ele>
        <time>2019-04-08T15:43:23Z</time>
      </trkpt>
      <trkpt lat="44.8637" lon="0.48937">
        <ele>37.896</ele>
        <time>2019-04-08T15:43:43Z</time>
      </trkpt>
      <trkpt lat="44.86333" lon="0.48808">
        <ele>36.377</ele>
        <time>2019-04-08T15:44:03Z</time>
      </trkpt>
      <trkpt lat="44.86308" lon="0.48831">
        <ele>36.591</ele>
        <time>2019-04-08T15:44:23Z</time>
      </trkpt>
      <trkpt lat="44.86264" lon="0.48716">
        <ele>37.063</ele>
        <time>2019-04-08T15:44:43Z</time>
      </trkpt>
      <trkpt lat="44.86262" lon="0.48608">
        <ele>36.471</ele>
        <time>2019-04-08T15:45:03Z</time>
      </trkpt>
      <trkpt lat="44.86223" lon="0.48525">
        <ele>37.017</ele>
        <time>2019-04-08T15:45:23Z</time>
      </trkpt>
      <trkpt lat="44.86209" lon="0.48465">
        <ele>37.031</ele>
        <time>2019-04-08T15:45:43Z</time>
      </trkpt>
      <trkpt lat="44.86202" lon="0.48229">
        <ele>36.361</ele>
        <time>2019-04-08T15:46:03Z</time>
      </trkpt>
      <trkpt lat="44.86065" lon="0.48226">
        <ele>37.707</ele>
        <time>2019-04-08T15:46:23Z</time>
      </trkpt>
      <trkpt lat="44.86023" lon="0.4827">
        <ele>37.508</ele>
        <time>2019-04-08T15:46:43Z</time>
      </trkpt>
      <trkpt lat="44.85782" lon="0.48265">
        <ele>38.656</ele>
        <time>2019-04-08T15:47:03Z</time>
      </trkpt>
      <trkpt lat="44.85666" lon="0.483">
        <ele>38.758</ele>
        <time>2019-04-08T15:47:23Z</time>
      </trkpt>
      <trkpt lat="44.85364" lon="0.4827">
        <ele>42.983</ele>
        <time>2019-04-08T15:47:43Z</time>
      </trkpt>
      <trkpt lat="44.85358" lon="0.48309">
        <ele>43.324</ele>
        <time>2019-04-08T15:48:03Z</time>
      </trkpt>
      <trkpt lat="44.85309" lon="0.48316">
        <ele>44.718</ele>
        <time>2019-04-08T15:48:23Z</time>
      </trkpt>
      <trkpt lat="44.85217" lon="0.48298">
        <ele>42.34</ele>
        <time>2019-04-08T15:48:43Z</time>
      </trkpt>
      <trkpt lat="44.85129" lon="0.48334">
        <ele>38.728</ele>
        <time>2019-04-08T15:49:03Z</time>
      </trkpt>
      <trkpt lat="44.85028" lon="0.48323">
        <ele>32.394</ele>
        <time>2019-04-08T15:49:23Z</time>
      </trkpt>
      <trkpt lat="44.85012" lon="0.48339">
        <ele>34.565</ele>
        <time>2019-04-08T15:49:43Z</time>
      </trkpt>
      <trkpt lat="44.84988" lon="0.48385">
        <ele>34.368</ele>
        <time>2019-04-08T15:50:03Z</time>
      </trkpt>
      <trkpt lat="44.84952" lon="0.4838">
        <ele>34.014</ele>
        <time>2019-04-08T15:50:23Z</time>
      </trkpt>
      <trkpt lat="44.84908" lon="0.48325">
        <ele>28.808</ele>
        <time>2019-04-08T15:50:43Z</time>
      </trkpt>
      <trkpt lat="44.84864" lon="0.48408">
        <ele>28.879</ele>
        <time>2019-04-08T15:51:03Z</time>
      </trkpt>
      <trkpt lat="44.84732" lon="0.4825">
        <ele>27.841</ele>
        <time>2019-04-08T15:51:23Z</time>
      </trkpt>
    </trkseg>
  </trk>
</gpx>